Estación Meteorológica Peña el Pijo (Robertgarden) [ 12/14/19 08:42:40 CET ]

Fecha Hora Presion(HPa) Temp (°C) Humedad % Rocio (°C) Viento ( m/s) Direccion Lluvia 1Hora(mm) Lluvia 24H(mm) LLuvia Total(mm)
2019-Nov-23 01:01:43 987.600 7.9 71 3.0 2.1 NNW   2.59 36.77
2019-Nov-23 02:01:49 986.700 7.9 68 2.4 1.2 NE   2.59 36.77
2019-Nov-23 03:01:58 987.300 5.7 78 2.1       2.07 36.77
2019-Nov-23 04:10:10 986.700 6.1 82 3.2 1.4 NNW   2.07 36.77
2019-Nov-23 05:01:57 988.100 5.2 84 2.7 1.4 NW 1.03 3.10 37.81
2019-Nov-23 06:01:56 988.500 5.1 86 2.9       3.10 37.81
2019-Nov-23 07:01:34 988.500 5.1 85 2.8 3.3 NW   3.10 37.81
2019-Nov-23 08:01:35 989.500 4.9 80 1.7       3.10 37.81
2019-Nov-23 09:01:42 990.300 5.3 79 1.9 1.2 ENE   3.10 37.81
2019-Nov-23 10:02:05 991.200 6.3 74 2.0       3.10 37.81
2019-Nov-23 11:01:46 991.900 7.9 66 1.9 1.5 NW   3.10 37.81
2019-Nov-23 12:01:43 992.700 8.0 66 2.0 2.6 N   3.10 37.81
2019-Nov-23 13:01:30 993.000 7.8 63 1.2 2.8 WNW   3.10 37.81
2019-Nov-23 14:01:56 992.900 8.8 61 1.7 2.5 WNW   3.10 37.81
2019-Nov-23 15:01:52 993.100 10.2 55 1.5       3.10 37.81
2019-Nov-23 16:01:53 994.300 9.8 54 0.9 2.6 NW   2.07 37.81
2019-Nov-23 17:01:47 995.300 7.7 59 0.2       1.03 37.81
2019-Nov-23 18:01:53 997.100 6.3 64 -0.0 0.9 NE   1.03 37.81
2019-Nov-23 19:01:53 997.700 5.8 68 0.4       1.03 37.81
2019-Nov-23 20:02:02 998.500 6.0 68 0.6       1.03 37.81
2019-Nov-23 21:01:54 999.100 6.1 69 0.9       1.03 37.81
2019-Nov-23 22:01:53 999.500 5.9 68 0.5       1.03 37.81
2019-Nov-23 23:01:47 1000.300 5.3 71 0.5       1.03 37.81

Temperatura Máxima:10°    Temperatura Mínima:
Presión Máxima:1000.300 Hpa    Presión Mínima:986.700 Hpa


Volver